createdAt,value
2018-12-17T02:59:16.481Z,24.49
2018-12-17T03:00:16.174Z,24.49
2018-12-17T03:01:16.005Z,24.51
2018-12-17T03:02:16.593Z,24.49
2018-12-17T03:03:15.995Z,24.51
2018-12-17T03:04:16.137Z,24.48
2018-12-17T03:05:16.679Z,24.45
2018-12-17T03:06:15.894Z,24.55
2018-12-17T03:07:15.755Z,24.49
2018-12-17T03:08:15.853Z,24.55
2018-12-17T03:09:15.977Z,24.49
2018-12-17T03:10:15.765Z,24.48
2018-12-17T03:11:16.131Z,24.51
2018-12-17T03:12:15.674Z,24.51
2018-12-17T03:13:15.431Z,24.46
2018-12-17T03:14:15.475Z,24.40
2018-12-17T03:15:15.373Z,24.44
2018-12-17T03:16:15.338Z,24.40
2018-12-17T03:17:15.353Z,24.44
2018-12-17T03:18:15.331Z,24.52
2018-12-17T03:19:15.469Z,24.48
2018-12-17T03:20:15.635Z,24.48
2018-12-17T03:21:15.652Z,24.49
2018-12-17T03:22:15.700Z,24.55
2018-12-17T03:23:15.858Z,24.48
2018-12-17T03:24:15.941Z,24.49
2018-12-17T03:25:15.336Z,24.51
2018-12-17T03:26:15.439Z,24.45
2018-12-17T03:27:15.314Z,24.49
2018-12-17T03:28:15.475Z,24.44
2018-12-17T03:29:15.010Z,24.48
2018-12-17T03:30:15.121Z,24.42
2018-12-17T03:31:15.359Z,24.48
2018-12-17T03:32:14.948Z,24.46
2018-12-17T03:33:15.145Z,24.42
2018-12-17T03:34:15.064Z,24.48
2018-12-17T03:35:15.095Z,24.42
2018-12-17T03:36:15.242Z,24.46
2018-12-17T03:37:14.785Z,24.48
2018-12-17T03:38:15.699Z,24.39
2018-12-17T03:39:15.034Z,24.44
2018-12-17T03:40:14.834Z,24.34
2018-12-17T03:41:15.038Z,24.37
2018-12-17T03:42:16.136Z,24.42
2018-12-17T03:43:15.396Z,24.37
2018-12-17T03:44:15.441Z,24.32
2018-12-17T03:45:14.965Z,24.33
2018-12-17T03:46:14.758Z,24.30
2018-12-17T03:47:14.820Z,24.33
2018-12-17T03:48:14.756Z,24.33
2018-12-17T03:49:14.893Z,24.42
2018-12-17T03:50:14.612Z,24.49
2018-12-17T03:51:14.948Z,24.48
2018-12-17T03:52:14.663Z,24.42
2018-12-17T03:53:14.787Z,24.42
2018-12-17T03:54:15.531Z,24.45
2018-12-17T03:55:15.179Z,24.45
2018-12-17T03:56:15.409Z,24.40
2018-12-17T03:57:14.802Z,24.39
2018-12-17T03:58:14.713Z,24.42
2018-12-17T03:59:14.727Z,24.36
2018-12-17T04:00:14.578Z,24.32
2018-12-17T04:01:14.663Z,24.24
2018-12-17T04:02:14.647Z,24.21
2018-12-17T04:03:14.229Z,24.22
2018-12-17T04:04:14.119Z,24.29
2018-12-17T04:05:14.121Z,24.21
2018-12-17T04:06:15.150Z,24.18
2018-12-17T04:07:14.287Z,24.19
2018-12-17T04:08:14.471Z,24.11
2018-12-17T04:09:14.387Z,24.14
2018-12-17T04:10:13.942Z,24.09
2018-12-17T04:11:14.067Z,24.24
2018-12-17T04:12:14.533Z,24.21
2018-12-17T04:13:13.965Z,24.32
2018-12-17T04:14:14.343Z,24.36
2018-12-17T04:15:14.225Z,24.34
2018-12-17T04:16:14.102Z,24.36
2018-12-17T04:17:14.823Z,24.42
2018-12-17T04:18:13.774Z,24.36
2018-12-17T04:19:14.028Z,24.45
2018-12-17T04:20:13.901Z,24.45
2018-12-17T04:21:13.845Z,24.42
2018-12-17T04:22:14.006Z,24.39
2018-12-17T04:23:13.845Z,24.49
2018-12-17T04:24:14.198Z,24.45
2018-12-17T04:25:13.969Z,24.44
2018-12-17T04:26:13.564Z,24.48
2018-12-17T04:27:13.492Z,24.48
2018-12-17T04:28:13.556Z,24.48
2018-12-17T04:29:13.551Z,24.44
2018-12-17T04:30:13.426Z,24.54
2018-12-17T04:31:13.419Z,24.45
2018-12-17T04:32:13.516Z,24.55
2018-12-17T04:33:14.137Z,24.52
2018-12-17T04:34:15.807Z,24.46
2018-12-17T04:35:14.789Z,24.55
2018-12-17T04:36:13.278Z,24.48
2018-12-17T04:37:13.281Z,24.42
2018-12-17T04:38:13.234Z,24.45
2018-12-17T04:39:13.288Z,24.44
2018-12-17T04:40:13.296Z,24.42
2018-12-17T04:41:13.134Z,24.42
2018-12-17T04:42:13.146Z,24.48
2018-12-17T04:43:13.083Z,24.42
2018-12-17T04:44:13.097Z,24.42
2018-12-17T04:45:15.181Z,24.56
2018-12-17T04:46:13.036Z,24.45
2018-12-17T04:47:13.811Z,24.37
2018-12-17T04:48:13.733Z,24.36
2018-12-17T04:49:12.933Z,24.37
2018-12-17T04:50:12.960Z,24.49
2018-12-17T04:51:13.661Z,24.40
2018-12-17T04:52:14.002Z,24.44
2018-12-17T04:53:14.637Z,24.40
2018-12-17T04:54:13.899Z,24.48
2018-12-17T04:55:14.066Z,24.39
2018-12-17T04:56:12.869Z,24.46
2018-12-17T04:57:12.723Z,24.42
2018-12-17T04:58:12.707Z,24.42
2018-12-17T04:59:14.791Z,24.42
2018-12-17T05:00:12.649Z,24.36
2018-12-17T05:01:12.768Z,24.45
2018-12-17T05:02:12.604Z,24.42
2018-12-17T05:03:12.577Z,24.45
2018-12-17T05:04:12.551Z,24.45
2018-12-17T05:05:12.542Z,24.46
2018-12-17T05:06:12.595Z,24.36
2018-12-17T05:07:12.655Z,24.42
2018-12-17T05:08:12.424Z,24.37
2018-12-17T05:09:12.423Z,24.33
2018-12-17T05:10:12.437Z,24.39
2018-12-17T05:11:12.417Z,24.26
2018-12-17T05:12:12.359Z,24.27
2018-12-17T05:13:12.409Z,24.29
2018-12-17T05:14:12.313Z,24.30
2018-12-17T05:15:12.293Z,24.34
2018-12-17T05:16:12.241Z,24.33
2018-12-17T05:17:12.214Z,24.32
2018-12-17T05:18:12.405Z,24.36
2018-12-17T05:19:12.188Z,24.32
2018-12-17T05:20:12.156Z,24.34
2018-12-17T05:21:12.121Z,24.36
2018-12-17T05:22:12.129Z,24.34
2018-12-17T05:23:12.219Z,24.39
2018-12-17T05:24:12.032Z,24.39
2018-12-17T05:25:12.002Z,24.37
2018-12-17T05:26:11.997Z,24.26
2018-12-17T05:27:11.990Z,24.22
2018-12-17T05:28:12.035Z,24.24
2018-12-17T05:29:11.918Z,24.36
2018-12-17T05:30:11.865Z,24.36
2018-12-17T05:31:11.852Z,24.40
2018-12-17T05:32:11.826Z,24.34
2018-12-17T05:33:11.904Z,24.37
2018-12-17T05:34:11.816Z,24.40
2018-12-17T05:35:11.743Z,24.37
2018-12-17T05:36:11.706Z,24.45
2018-12-17T05:37:11.741Z,24.39
2018-12-17T05:38:12.236Z,24.45
2018-12-17T05:39:11.664Z,24.39
2018-12-17T05:40:11.624Z,24.49
2018-12-17T05:41:11.574Z,24.48
2018-12-17T05:42:11.655Z,24.59
2018-12-17T05:43:11.590Z,24.42
2018-12-17T05:44:11.715Z,24.52
2018-12-17T05:45:11.529Z,24.51
2018-12-17T05:46:11.459Z,24.51
2018-12-17T05:47:11.473Z,24.52
2018-12-17T05:48:11.401Z,24.63
2018-12-17T05:49:11.364Z,24.49
2018-12-17T05:50:11.508Z,24.59
2018-12-17T05:51:11.447Z,24.59
2018-12-17T05:52:11.326Z,24.52
2018-12-17T05:53:11.263Z,24.52
2018-12-17T05:54:11.241Z,24.49
2018-12-17T05:55:11.232Z,24.45
2018-12-17T05:56:11.322Z,24.54
2018-12-17T05:57:11.182Z,24.49
2018-12-17T05:58:11.159Z,24.52
2018-12-17T05:59:11.120Z,24.51
2018-12-17T06:00:12.772Z,24.59
2018-12-17T06:01:11.160Z,24.58
2018-12-17T06:02:12.533Z,24.61
2018-12-17T06:03:12.771Z,24.55
2018-12-17T06:04:12.160Z,24.52
2018-12-17T06:05:12.019Z,24.64
2018-12-17T06:06:13.276Z,24.55
2018-12-17T06:07:11.032Z,24.58
2018-12-17T06:08:12.591Z,24.54
2018-12-17T06:09:11.727Z,24.54
2018-12-17T06:10:10.943Z,24.51
2018-12-17T06:11:11.548Z,24.51
2018-12-17T06:12:10.936Z,24.56
2018-12-17T06:13:10.783Z,24.69
2018-12-17T06:14:10.728Z,24.56
2018-12-17T06:15:10.702Z,24.58
2018-12-17T06:16:10.697Z,24.59
2018-12-17T06:17:10.718Z,24.55
2018-12-17T06:18:10.724Z,24.69
2018-12-17T06:19:10.644Z,24.48
2018-12-17T06:20:10.596Z,24.51
2018-12-17T06:21:10.552Z,24.51
2018-12-17T06:22:10.545Z,24.46
2018-12-17T06:23:12.814Z,24.49
2018-12-17T06:24:10.479Z,24.54
2018-12-17T06:25:10.466Z,24.45
2018-12-17T06:26:10.436Z,24.54
2018-12-17T06:27:10.427Z,24.51
2018-12-17T06:28:10.360Z,24.55
2018-12-17T06:29:10.409Z,24.55
2018-12-17T06:30:10.341Z,24.64
2018-12-17T06:31:10.302Z,24.66
2018-12-17T06:32:10.277Z,24.55
2018-12-17T06:33:15.659Z,24.54
2018-12-17T06:34:10.312Z,24.54
2018-12-17T06:35:10.259Z,24.49
2018-12-17T06:36:10.154Z,24.46
2018-12-17T06:37:10.156Z,24.56
2018-12-17T06:38:10.166Z,24.49
2018-12-17T06:39:10.353Z,24.42
2018-12-17T06:40:10.610Z,24.39
2018-12-17T06:41:10.032Z,24.34
2018-12-17T06:42:10.005Z,24.32
2018-12-17T06:43:09.993Z,24.22
2018-12-17T06:44:09.999Z,24.36
2018-12-17T06:45:09.914Z,24.39
2018-12-17T06:46:09.911Z,24.44
2018-12-17T06:47:09.902Z,24.42
2018-12-17T06:48:16.824Z,24.42
2018-12-17T06:49:09.825Z,24.36
2018-12-17T06:50:09.943Z,24.34
2018-12-17T06:51:09.784Z,24.24
2018-12-17T06:52:09.792Z,24.26
2018-12-17T06:53:09.728Z,24.24
2018-12-17T06:54:09.806Z,24.21
2018-12-17T06:55:09.715Z,24.26
2018-12-17T06:56:09.752Z,24.14
2018-12-17T06:57:10.950Z,24.09
2018-12-17T06:58:10.835Z,24.03
2018-12-17T06:59:10.984Z,24.12
2018-12-17T07:00:09.574Z,24.17
2018-12-17T07:01:09.631Z,24.11
2018-12-17T07:02:09.491Z,24.14
2018-12-17T07:03:09.485Z,24.24
2018-12-17T07:04:09.456Z,24.15
2018-12-17T07:05:09.423Z,24.17
2018-12-17T07:06:09.397Z,24.15
2018-12-17T07:07:09.410Z,24.11
2018-12-17T07:08:09.348Z,24.14
2018-12-17T07:09:09.328Z,24.12
2018-12-17T07:10:09.299Z,24.09
2018-12-17T07:11:09.369Z,24.12
2018-12-17T07:12:09.248Z,24.15
2018-12-17T07:13:09.310Z,24.07
2018-12-17T07:14:09.200Z,24.09
2018-12-17T07:15:09.174Z,24.24
2018-12-17T07:16:09.125Z,24.14
2018-12-17T07:17:09.110Z,24.09
2018-12-17T07:18:09.180Z,24.12
2018-12-17T07:19:09.032Z,24.12
2018-12-17T07:20:09.050Z,24.07
2018-12-17T07:21:09.078Z,24.09
2018-12-17T07:22:08.971Z,23.96
2018-12-17T07:23:09.067Z,23.97
2018-12-17T07:24:08.921Z,24.00
2018-12-17T07:25:08.896Z,24.02
2018-12-17T07:26:08.855Z,23.99
2018-12-17T07:27:08.862Z,23.93
2018-12-17T07:28:08.876Z,23.93
2018-12-17T07:29:08.903Z,23.89
2018-12-17T07:30:08.780Z,23.90
2018-12-17T07:31:08.742Z,23.85
2018-12-17T07:32:08.713Z,23.89
2018-12-17T07:33:08.688Z,23.89
2018-12-17T07:34:08.714Z,23.82
2018-12-17T07:35:08.636Z,23.87
2018-12-17T07:36:08.635Z,23.84
2018-12-17T07:37:08.676Z,23.90
2018-12-17T07:38:08.557Z,23.94
2018-12-17T07:39:08.627Z,23.87
2018-12-17T07:40:08.697Z,23.99
2018-12-17T07:41:08.460Z,23.89
2018-12-17T07:42:08.478Z,23.77
2018-12-17T07:43:08.426Z,23.77
2018-12-17T07:44:08.397Z,23.77
2018-12-17T07:45:08.627Z,23.71
2018-12-17T07:46:08.351Z,23.74
2018-12-17T07:47:08.327Z,23.72
2018-12-17T07:48:08.396Z,23.77
2018-12-17T07:49:08.264Z,23.71
2018-12-17T07:50:08.273Z,23.71
2018-12-17T07:51:08.270Z,23.72
2018-12-17T07:52:08.179Z,23.75
2018-12-17T07:53:08.169Z,23.71
2018-12-17T07:54:08.138Z,23.74
2018-12-17T07:55:08.114Z,23.72
2018-12-17T07:56:08.199Z,23.75
2018-12-17T07:57:08.054Z,23.75
2018-12-17T07:58:08.023Z,23.75
2018-12-17T07:59:08.075Z,23.74
2018-12-17T08:00:07.985Z,23.66
2018-12-17T08:01:07.958Z,23.63
2018-12-17T08:02:08.016Z,23.64
2018-12-17T08:03:07.897Z,23.70
2018-12-17T08:04:07.876Z,23.72
2018-12-17T08:05:07.852Z,23.72
2018-12-17T08:06:07.832Z,23.72
2018-12-17T08:07:07.964Z,23.71
2018-12-17T08:08:07.763Z,23.66
2018-12-17T08:09:07.760Z,23.70
2018-12-17T08:10:07.740Z,23.70
2018-12-17T08:11:07.695Z,23.62
2018-12-17T08:12:07.724Z,23.67
2018-12-17T08:13:09.575Z,23.60
2018-12-17T08:14:07.621Z,23.60
2018-12-17T08:15:07.598Z,23.59
2018-12-17T08:16:07.589Z,23.53
2018-12-17T08:17:07.596Z,23.50
2018-12-17T08:18:07.517Z,23.50
2018-12-17T08:19:07.471Z,23.47
2018-12-17T08:20:07.490Z,23.53
2018-12-17T08:21:07.443Z,23.53
2018-12-17T08:22:07.401Z,23.50
2018-12-17T08:23:07.487Z,23.42
2018-12-17T08:24:07.347Z,23.52
2018-12-17T08:25:07.329Z,23.50
2018-12-17T08:26:07.289Z,23.53
2018-12-17T08:27:08.817Z,23.44
2018-12-17T08:28:08.299Z,23.71
2018-12-17T08:29:08.318Z,23.71
2018-12-17T08:30:08.447Z,23.71
2018-12-17T08:31:07.171Z,23.63
2018-12-17T08:32:07.154Z,23.60
2018-12-17T08:33:07.110Z,23.56
2018-12-17T08:34:07.092Z,23.56
2018-12-17T08:35:07.111Z,23.50
2018-12-17T08:36:07.061Z,23.38
2018-12-17T08:37:07.008Z,23.47
2018-12-17T08:38:06.991Z,23.57
2018-12-17T08:39:06.961Z,23.59
2018-12-17T08:40:06.933Z,23.47
2018-12-17T08:41:06.981Z,23.47
2018-12-17T08:42:06.899Z,23.48
2018-12-17T08:43:06.903Z,23.53
2018-12-17T08:44:06.883Z,23.45
2018-12-17T08:45:06.786Z,23.41
2018-12-17T08:46:06.903Z,23.41
2018-12-17T08:47:06.733Z,23.35
2018-12-17T08:48:06.718Z,23.41
2018-12-17T08:49:06.723Z,23.38
2018-12-17T08:50:06.674Z,23.34
2018-12-17T08:51:06.777Z,23.34
2018-12-17T08:52:06.616Z,23.32
2018-12-17T08:53:06.579Z,23.29
2018-12-17T08:54:06.576Z,23.34
2018-12-17T08:55:06.562Z,23.34
2018-12-17T08:56:06.643Z,23.29
2018-12-17T08:57:06.937Z,23.37
2018-12-17T08:58:07.135Z,23.35
2018-12-17T08:59:07.996Z,23.25
2018-12-17T09:00:11.029Z,23.29
2018-12-17T09:01:06.414Z,23.28
2018-12-17T09:02:06.402Z,23.37
2018-12-17T09:03:06.355Z,23.34
2018-12-17T09:04:06.306Z,23.26
2018-12-17T09:05:06.295Z,23.32
2018-12-17T09:06:06.259Z,23.34
2018-12-17T09:07:06.313Z,23.32
2018-12-17T09:08:06.184Z,23.29
2018-12-17T09:09:06.232Z,23.32
2018-12-17T09:10:06.142Z,23.34
2018-12-17T09:11:06.112Z,23.29
2018-12-17T09:12:06.084Z,23.35
2018-12-17T09:13:06.175Z,23.37
2018-12-17T09:14:06.030Z,23.35
2018-12-17T09:15:06.003Z,23.32
2018-12-17T09:16:06.029Z,23.38
2018-12-17T09:17:05.951Z,23.41
2018-12-17T09:18:07.271Z,23.26
2018-12-17T09:19:05.904Z,23.34
2018-12-17T09:20:05.882Z,23.24
2018-12-17T09:21:05.836Z,23.22
2018-12-17T09:22:05.824Z,23.26
2018-12-17T09:23:05.887Z,23.12
2018-12-17T09:24:05.759Z,23.16
2018-12-17T09:25:05.755Z,23.35
2018-12-17T09:26:05.741Z,23.24
2018-12-17T09:27:05.678Z,23.25
2018-12-17T09:28:05.733Z,23.25
2018-12-17T09:29:05.636Z,23.26
2018-12-17T09:30:05.599Z,23.18
2018-12-17T09:31:05.578Z,23.24
2018-12-17T09:32:05.562Z,23.22
2018-12-17T09:33:05.586Z,23.16
2018-12-17T09:34:05.492Z,23.10
2018-12-17T09:35:05.481Z,23.15
2018-12-17T09:36:05.638Z,23.18
2018-12-17T09:37:05.429Z,23.14
2018-12-17T09:38:05.407Z,23.09
2018-12-17T09:39:05.466Z,23.04
2018-12-17T09:40:05.374Z,23.06
2018-12-17T09:41:05.318Z,23.10
2018-12-17T09:42:05.290Z,23.10
2018-12-17T09:43:05.272Z,23.04
2018-12-17T09:44:05.239Z,23.01
2018-12-17T09:45:05.311Z,23.03
2018-12-17T09:46:05.210Z,22.99
2018-12-17T09:47:05.177Z,22.91
2018-12-17T09:48:05.141Z,22.99
2018-12-17T09:49:05.114Z,22.84
2018-12-17T09:50:05.200Z,22.92
2018-12-17T09:51:05.052Z,22.84
2018-12-17T09:52:05.034Z,22.86
2018-12-17T09:53:05.002Z,22.85
2018-12-17T09:54:04.982Z,22.75
2018-12-17T09:55:05.019Z,22.76
2018-12-17T09:56:04.941Z,22.73
2018-12-17T09:57:04.984Z,22.63
2018-12-17T09:58:04.877Z,22.70
2018-12-17T09:59:04.849Z,22.64
2018-12-17T10:00:04.917Z,22.66
2018-12-17T10:01:04.810Z,22.63
2018-12-17T10:02:04.765Z,22.60
2018-12-17T10:03:04.735Z,22.55
2018-12-17T10:04:04.721Z,22.49
2018-12-17T10:05:04.796Z,22.63
2018-12-17T10:06:04.655Z,22.59
2018-12-17T10:07:04.630Z,22.48
2018-12-17T10:08:04.657Z,22.52
2018-12-17T10:09:06.436Z,22.39
2018-12-17T10:10:04.607Z,22.41
2018-12-17T10:11:04.542Z,22.29
2018-12-17T10:12:04.584Z,22.23
2018-12-17T10:13:04.467Z,22.31
2018-12-17T10:14:04.454Z,22.30
2018-12-17T10:15:06.025Z,22.31
2018-12-17T10:16:07.052Z,22.31
2018-12-17T10:17:04.353Z,22.38
2018-12-17T10:18:04.366Z,22.27
2018-12-17T10:19:05.886Z,22.41
2018-12-17T10:20:04.989Z,22.27
2018-12-17T10:21:05.698Z,22.24
2018-12-17T10:22:04.933Z,22.11
2018-12-17T10:23:05.530Z,22.27
2018-12-17T10:24:05.878Z,22.20
2018-12-17T10:25:05.230Z,22.26
2018-12-17T10:26:04.113Z,22.26
2018-12-17T10:27:04.187Z,22.27
2018-12-17T10:28:04.150Z,22.22
2018-12-17T10:29:04.040Z,22.16
2018-12-17T10:30:04.007Z,22.27
2018-12-17T10:31:03.986Z,22.30
2018-12-17T10:32:03.965Z,22.31
2018-12-17T10:33:04.046Z,22.22
2018-12-17T10:34:03.912Z,22.23
2018-12-17T10:35:03.899Z,22.23
2018-12-17T10:36:03.862Z,22.07
2018-12-17T10:37:03.814Z,22.16
2018-12-17T10:38:03.913Z,22.22
2018-12-17T10:39:03.793Z,22.16
2018-12-17T10:40:03.803Z,22.15
2018-12-17T10:41:03.736Z,22.07
2018-12-17T10:42:03.722Z,22.16
2018-12-17T10:43:03.799Z,22.20
2018-12-17T10:44:03.692Z,22.22
2018-12-17T10:45:03.608Z,22.15
2018-12-17T10:46:03.585Z,22.23
2018-12-17T10:47:03.552Z,22.22
2018-12-17T10:48:03.638Z,22.24
2018-12-17T10:49:03.505Z,22.27
2018-12-17T10:50:03.493Z,22.33
2018-12-17T10:51:03.440Z,22.26
2018-12-17T10:52:03.496Z,22.39
2018-12-17T10:53:03.391Z,22.27
2018-12-17T10:54:03.468Z,22.30
2018-12-17T10:55:03.349Z,22.31
2018-12-17T10:56:03.334Z,22.33
2018-12-17T10:57:03.304Z,22.38
2018-12-17T10:58:03.285Z,22.29
2018-12-17T10:59:03.241Z,22.22
2018-12-17T11:00:03.396Z,22.33
2018-12-17T11:01:03.184Z,22.31
2018-12-17T11:02:03.257Z,22.30
2018-12-17T11:03:03.133Z,22.29
2018-12-17T11:04:03.126Z,22.39
2018-12-17T11:05:03.131Z,22.30
2018-12-17T11:06:03.072Z,22.38
2018-12-17T11:07:03.019Z,22.33
2018-12-17T11:08:02.994Z,22.44
2018-12-17T11:09:02.987Z,22.36
2018-12-17T11:10:03.018Z,22.38
2018-12-17T11:11:02.915Z,22.45
2018-12-17T11:12:02.885Z,22.51
2018-12-17T11:13:02.856Z,22.57
2018-12-17T11:14:02.895Z,22.48
2018-12-17T11:15:02.943Z,22.49
2018-12-17T11:16:02.773Z,22.54
2018-12-17T11:17:02.763Z,22.54
2018-12-17T11:18:02.817Z,22.52
2018-12-17T11:19:02.711Z,22.59
2018-12-17T11:20:02.791Z,22.46
2018-12-17T11:21:02.691Z,22.63
2018-12-17T11:22:02.620Z,22.61
2018-12-17T11:23:02.590Z,22.63
2018-12-17T11:24:02.566Z,22.55
2018-12-17T11:25:02.637Z,22.63
2018-12-17T11:26:02.527Z,22.57
2018-12-17T11:27:02.546Z,22.48
2018-12-17T11:28:02.466Z,22.49
2018-12-17T11:29:02.429Z,22.45
2018-12-17T11:30:02.413Z,22.46
2018-12-17T11:31:02.422Z,22.49
2018-12-17T11:32:02.349Z,22.49
2018-12-17T11:33:02.330Z,22.49
2018-12-17T11:34:02.348Z,22.48
2018-12-17T11:35:02.261Z,22.54
2018-12-17T11:36:02.238Z,22.51
2018-12-17T11:37:02.336Z,22.52
2018-12-17T11:38:02.184Z,22.61
2018-12-17T11:39:02.178Z,22.54
2018-12-17T11:40:02.171Z,22.46
2018-12-17T11:41:02.110Z,22.46
2018-12-17T11:42:02.174Z,22.46
2018-12-17T11:43:02.062Z,22.52
2018-12-17T11:44:02.047Z,22.54
2018-12-17T11:45:01.998Z,22.52
2018-12-17T11:46:01.965Z,22.52
2018-12-17T11:47:02.172Z,22.49
2018-12-17T11:48:01.925Z,22.48
2018-12-17T11:49:01.918Z,22.48
2018-12-17T11:50:01.861Z,22.44
2018-12-17T11:51:01.846Z,22.44
2018-12-17T11:52:01.892Z,22.42
2018-12-17T11:53:01.783Z,22.38
2018-12-17T11:54:02.174Z,22.46
2018-12-17T11:55:02.152Z,22.49
2018-12-17T11:56:01.767Z,22.52
2018-12-17T11:57:01.803Z,22.59
2018-12-17T11:58:01.697Z,22.69
2018-12-17T11:59:01.644Z,22.64
2018-12-17T12:00:01.606Z,22.66
2018-12-17T12:01:01.578Z,22.70
2018-12-17T12:02:01.607Z,22.75
2018-12-17T12:03:01.718Z,22.79
2018-12-17T12:04:01.476Z,22.70
2018-12-17T12:05:01.462Z,22.75
2018-12-17T12:06:01.500Z,22.61
2018-12-17T12:07:01.423Z,22.75
2018-12-17T12:08:01.437Z,22.61
2018-12-17T12:09:01.488Z,22.61
2018-12-17T12:10:01.325Z,22.64
2018-12-17T12:11:01.308Z,22.63
2018-12-17T12:12:01.272Z,22.69
2018-12-17T12:13:01.250Z,22.67
2018-12-17T12:14:01.221Z,22.66
2018-12-17T12:15:01.258Z,22.71
2018-12-17T12:16:01.176Z,22.84
2018-12-17T12:17:01.140Z,22.85
2018-12-17T12:18:01.133Z,22.94
2018-12-17T12:19:01.154Z,22.96
2018-12-17T12:20:01.114Z,22.97
2018-12-17T12:21:01.326Z,22.91
2018-12-17T12:22:01.012Z,22.99
2018-12-17T12:23:00.985Z,22.92
2018-12-17T12:24:00.991Z,22.99
2018-12-17T12:25:01.043Z,22.96
2018-12-17T12:26:00.903Z,23.00
2018-12-17T12:27:00.899Z,23.00
2018-12-17T12:28:00.839Z,23.03
2018-12-17T12:29:00.824Z,23.16
2018-12-17T12:30:00.888Z,23.12
2018-12-17T12:31:00.814Z,23.26
2018-12-17T12:32:00.744Z,23.35
2018-12-17T12:33:00.708Z,23.41
2018-12-17T12:34:00.718Z,23.57
2018-12-17T12:35:00.664Z,23.52
2018-12-17T12:36:00.769Z,23.75
2018-12-17T12:37:00.656Z,23.85
2018-12-17T12:38:00.550Z,23.90
2018-12-17T12:39:00.549Z,23.99
2018-12-17T12:40:00.529Z,23.89
2018-12-17T12:41:00.507Z,23.87
2018-12-17T12:42:00.519Z,23.82
2018-12-17T12:43:00.452Z,23.84
2018-12-17T12:44:00.417Z,23.85
2018-12-17T12:45:00.442Z,23.89
2018-12-17T12:46:00.367Z,23.92
2018-12-17T12:47:00.327Z,24.08
2018-12-17T12:48:00.404Z,24.11
2018-12-17T12:49:00.460Z,24.08
2018-12-17T12:50:00.273Z,24.08
2018-12-17T12:51:00.246Z,24.07
2018-12-17T12:52:00.238Z,23.96
2018-12-17T12:53:00.485Z,24.08
2018-12-17T12:54:00.176Z,24.03
2018-12-17T12:55:00.144Z,24.12
2018-12-17T12:56:00.140Z,24.22
2018-12-17T12:57:00.831Z,24.37
2018-12-17T12:58:03.684Z,24.36
2018-12-17T12:59:00.167Z,24.39
2018-12-17T13:00:00.044Z,24.45
2018-12-17T13:00:59.954Z,24.49
2018-12-17T13:01:59.934Z,24.49
2018-12-17T13:03:00.079Z,24.55
2018-12-17T13:04:00.150Z,24.58
2018-12-17T13:04:59.880Z,24.63
2018-12-17T13:05:59.933Z,24.69
2018-12-17T13:06:59.813Z,24.64
2018-12-17T13:08:00.139Z,24.61
2018-12-17T13:08:59.964Z,24.56
2018-12-17T13:09:59.749Z,24.55
2018-12-17T13:10:59.724Z,24.54
2018-12-17T13:11:59.697Z,24.69
2018-12-17T13:12:59.685Z,24.77
2018-12-17T13:13:59.720Z,24.92
2018-12-17T13:14:59.616Z,24.92
2018-12-17T13:15:59.653Z,25.14
2018-12-17T13:16:59.556Z,25.27
2018-12-17T13:17:59.527Z,25.33
2018-12-17T13:18:59.587Z,25.30
2018-12-17T13:19:59.487Z,25.57
2018-12-17T13:20:59.448Z,25.59
2018-12-17T13:21:59.483Z,25.64
2018-12-17T13:22:59.624Z,25.79
2018-12-17T13:23:59.379Z,25.91
2018-12-17T13:24:59.457Z,25.94
2018-12-17T13:25:59.325Z,26.11
2018-12-17T13:26:59.298Z,26.04
2018-12-17T13:27:59.258Z,26.09
2018-12-17T13:28:59.250Z,26.09
2018-12-17T13:29:59.353Z,26.07
2018-12-17T13:30:59.377Z,26.19
2018-12-17T13:31:59.581Z,26.22
2018-12-17T13:32:59.129Z,26.31
2018-12-17T13:34:00.917Z,26.34
2018-12-17T13:35:01.731Z,26.41
2018-12-17T13:36:00.393Z,26.53
2018-12-17T13:37:01.150Z,26.47
2018-12-17T13:38:00.836Z,26.50
2018-12-17T13:39:01.042Z,26.67
2018-12-17T13:39:58.957Z,26.74
2018-12-17T13:40:58.981Z,26.68
2018-12-17T13:42:00.594Z,26.84
2018-12-17T13:42:59.290Z,26.90
2018-12-17T13:44:00.816Z,27.01
2018-12-17T13:44:58.870Z,27.13
2018-12-17T13:45:59.028Z,27.19
2018-12-17T13:46:58.882Z,27.18
2018-12-17T13:47:58.738Z,27.30
2018-12-17T13:48:58.705Z,27.31
2018-12-17T13:49:59.362Z,27.46
2018-12-17T13:50:59.015Z,27.34
2018-12-17T13:51:59.042Z,27.45
2018-12-17T13:52:58.610Z,27.43
2018-12-17T13:53:58.635Z,27.55
2018-12-17T13:54:58.650Z,27.72
2018-12-17T13:55:58.542Z,27.74
2018-12-17T13:57:00.625Z,27.90
2018-12-17T13:58:01.373Z,27.79
2018-12-17T13:58:58.850Z,27.87
2018-12-17T13:59:58.518Z,28.05
2018-12-17T14:00:58.568Z,28.11
2018-12-17T14:01:58.451Z,28.09
2018-12-17T14:04:01.550Z,28.16
2018-12-17T14:06:00.787Z,28.33
2018-12-17T14:12:00.706Z,28.57
2018-12-17T14:14:59.993Z,28.78
2018-12-17T14:15:58.646Z,28.80
2018-12-17T14:16:58.513Z,28.85
2018-12-17T14:21:58.829Z,29.24
2018-12-17T14:22:58.758Z,29.21
2018-12-17T14:25:59.262Z,29.33
2018-12-17T14:26:57.769Z,29.38
2018-12-17T14:27:58.458Z,29.38
2018-12-17T14:28:58.139Z,29.52
2018-12-17T14:29:57.708Z,29.58
2018-12-17T14:30:57.679Z,29.48
2018-12-17T14:31:58.486Z,29.50
2018-12-17T14:32:58.153Z,29.50
2018-12-17T14:33:57.609Z,29.63
2018-12-17T14:34:57.591Z,29.75
2018-12-17T14:35:57.567Z,29.70
2018-12-17T14:36:58.658Z,29.82
2018-12-17T14:37:58.231Z,29.91
2018-12-17T14:38:57.784Z,29.88
2018-12-17T14:39:57.939Z,29.87
2018-12-17T14:40:57.554Z,29.98
2018-12-17T14:41:57.788Z,30.00
2018-12-17T14:42:57.841Z,30.10
2018-12-17T14:43:57.728Z,29.89
2018-12-17T14:44:57.772Z,29.95
2018-12-17T14:45:57.670Z,29.92
2018-12-17T14:46:57.326Z,29.87
2018-12-17T14:47:57.789Z,29.92
2018-12-17T14:48:58.004Z,29.81
2018-12-17T14:49:57.655Z,29.88
2018-12-17T14:50:57.582Z,30.00
2018-12-17T14:51:57.171Z,29.95
2018-12-17T14:52:57.188Z,30.07
2018-12-17T14:53:57.242Z,29.98
2018-12-17T14:54:57.122Z,29.85
2018-12-17T14:55:57.079Z,29.94
2018-12-17T14:56:57.068Z,30.10
2018-12-17T14:57:57.052Z,30.18
2018-12-17T14:58:57.066Z,30.19
2018-12-17T14:59:57.960Z,30.16
2018-12-17T15:00:56.978Z,30.29
2018-12-17T15:01:57.417Z,30.21
2018-12-17T15:02:57.306Z,30.44
2018-12-17T15:03:57.161Z,30.42
2018-12-17T15:04:57.159Z,30.45
2018-12-17T15:05:57.685Z,30.54
2018-12-17T15:06:57.192Z,30.60
2018-12-17T15:07:57.105Z,30.71
2018-12-17T15:08:57.029Z,30.73
2018-12-17T15:09:57.341Z,30.70
2018-12-17T15:10:57.102Z,30.73
2018-12-17T15:11:57.622Z,30.77
2018-12-17T15:12:57.029Z,30.69
2018-12-17T15:13:57.088Z,30.70
2018-12-17T15:14:56.879Z,30.79
2018-12-17T15:15:56.878Z,30.67
2018-12-17T15:16:57.010Z,30.67
2018-12-17T15:17:57.229Z,30.70
2018-12-17T15:18:57.021Z,30.67
2018-12-17T15:19:56.525Z,30.56
2018-12-17T15:20:56.989Z,30.69
2018-12-17T15:21:56.724Z,30.60
2018-12-17T15:22:56.792Z,30.63
2018-12-17T15:23:57.774Z,30.73
2018-12-17T15:24:56.725Z,30.69
2018-12-17T15:25:56.843Z,30.79
2018-12-17T15:26:57.029Z,30.73
2018-12-17T15:27:56.775Z,30.70
2018-12-17T15:28:56.892Z,30.62
2018-12-17T15:29:57.074Z,30.75
2018-12-17T15:30:56.681Z,30.82
2018-12-17T15:31:57.843Z,30.97
2018-12-17T15:32:56.654Z,31.03
2018-12-17T15:33:56.492Z,31.16
2018-12-17T15:34:56.936Z,31.26
2018-12-17T15:35:56.832Z,31.23
2018-12-17T15:36:56.127Z,31.30
2018-12-17T15:37:56.543Z,31.18
2018-12-17T15:38:56.413Z,31.16
2018-12-17T15:39:57.326Z,31.23
2018-12-17T15:40:56.076Z,31.22
2018-12-17T15:41:56.014Z,31.18
2018-12-17T15:42:55.985Z,31.19
2018-12-17T15:43:55.952Z,31.36
2018-12-17T15:44:55.942Z,31.26
2018-12-17T15:45:56.008Z,31.21
2018-12-17T15:46:55.865Z,31.19
2018-12-17T15:47:55.863Z,31.25
2018-12-17T15:48:55.846Z,31.13
2018-12-17T15:49:55.841Z,31.12
2018-12-17T15:50:55.938Z,31.21
2018-12-17T15:51:55.766Z,31.26
2018-12-17T15:52:55.763Z,31.36
2018-12-17T15:53:55.813Z,31.36
2018-12-17T15:54:55.696Z,31.45
2018-12-17T15:55:55.757Z,31.50
2018-12-17T15:56:55.657Z,31.50
2018-12-17T15:57:55.620Z,31.55
2018-12-17T15:58:55.608Z,31.60
2018-12-17T16:58:16.762Z,32.31
2018-12-17T16:59:16.702Z,32.30
2018-12-17T17:00:16.613Z,32.46
2018-12-17T17:01:16.598Z,32.57
2018-12-17T17:02:16.642Z,32.68
2018-12-17T17:03:16.579Z,32.79
2018-12-17T17:04:16.514Z,32.72